sensor_id;sensor_type;location;lat;lon;timestamp;P1;durP1;ratioP1;P2;durP2;ratioP2
15708;SDS011;7954;51.914;8.420;2022-12-07T00:01:43;13.73;;;12.53;;
15708;SDS011;7954;51.914;8.420;2022-12-07T00:04:12;14.40;;;13.00;;
15708;SDS011;7954;51.914;8.420;2022-12-07T00:06:43;15.30;;;14.00;;
15708;SDS011;7954;51.914;8.420;2022-12-07T00:09:14;13.87;;;12.67;;
15708;SDS011;7954;51.914;8.420;2022-12-07T00:11:43;15.63;;;14.13;;
15708;SDS011;7954;51.914;8.420;2022-12-07T00:14:12;15.60;;;13.80;;
15708;SDS011;7954;51.914;8.420;2022-12-07T00:16:43;15.13;;;13.63;;
15708;SDS011;7954;51.914;8.420;2022-12-07T00:19:11;13.83;;;12.53;;
15708;SDS011;7954;51.914;8.420;2022-12-07T00:21:40;19.53;;;17.63;;
15708;SDS011;7954;51.914;8.420;2022-12-07T00:24:10;16.97;;;15.37;;
15708;SDS011;7954;51.914;8.420;2022-12-07T00:26:41;17.43;;;15.80;;
15708;SDS011;7954;51.914;8.420;2022-12-07T00:29:11;17.53;;;15.90;;
15708;SDS011;7954;51.914;8.420;2022-12-07T00:31:43;15.80;;;14.40;;
15708;SDS011;7954;51.914;8.420;2022-12-07T00:34:12;14.57;;;13.33;;
15708;SDS011;7954;51.914;8.420;2022-12-07T00:36:41;14.97;;;13.57;;
15708;SDS011;7954;51.914;8.420;2022-12-07T00:39:09;14.03;;;12.80;;
15708;SDS011;7954;51.914;8.420;2022-12-07T00:41:37;14.07;;;12.87;;
15708;SDS011;7954;51.914;8.420;2022-12-07T00:44:07;16.97;;;15.47;;
15708;SDS011;7954;51.914;8.420;2022-12-07T00:46:34;14.10;;;12.90;;
15708;SDS011;7954;51.914;8.420;2022-12-07T00:49:03;14.50;;;13.20;;
15708;SDS011;7954;51.914;8.420;2022-12-07T00:51:31;16.57;;;14.77;;
15708;SDS011;7954;51.914;8.420;2022-12-07T00:53:59;14.93;;;13.63;;
15708;SDS011;7954;51.914;8.420;2022-12-07T00:56:28;14.67;;;13.13;;
15708;SDS011;7954;51.914;8.420;2022-12-07T00:58:58;15.53;;;14.07;;
15708;SDS011;7954;51.914;8.420;2022-12-07T01:01:29;15.10;;;13.70;;
15708;SDS011;7954;51.914;8.420;2022-12-07T01:03:58;14.30;;;13.00;;
15708;SDS011;7954;51.914;8.420;2022-12-07T01:06:28;14.83;;;13.53;;
15708;SDS011;7954;51.914;8.420;2022-12-07T01:08:56;16.00;;;14.47;;
15708;SDS011;7954;51.914;8.420;2022-12-07T01:11:25;12.60;;;11.60;;
15708;SDS011;7954;51.914;8.420;2022-12-07T01:13:56;12.27;;;11.27;;
15708;SDS011;7954;51.914;8.420;2022-12-07T01:16:26;11.20;;;10.20;;
15708;SDS011;7954;51.914;8.420;2022-12-07T01:18:57;11.77;;;10.77;;
15708;SDS011;7954;51.914;8.420;2022-12-07T01:21:27;14.33;;;13.17;;
15708;SDS011;7954;51.914;8.420;2022-12-07T01:24:01;12.40;;;11.37;;
15708;SDS011;7954;51.914;8.420;2022-12-07T01:26:30;11.60;;;10.50;;
15708;SDS011;7954;51.914;8.420;2022-12-07T01:28:58;12.20;;;11.10;;
15708;SDS011;7954;51.914;8.420;2022-12-07T01:31:27;11.40;;;10.40;;
15708;SDS011;7954;51.914;8.420;2022-12-07T01:33:59;12.63;;;11.53;;
15708;SDS011;7954;51.914;8.420;2022-12-07T01:36:28;10.17;;;9.27;;
15708;SDS011;7954;51.914;8.420;2022-12-07T01:38:58;12.87;;;11.77;;
15708;SDS011;7954;51.914;8.420;2022-12-07T01:41:29;12.30;;;11.13;;
15708;SDS011;7954;51.914;8.420;2022-12-07T01:44:10;12.90;;;11.80;;
15708;SDS011;7954;51.914;8.420;2022-12-07T01:46:45;12.27;;;11.10;;
15708;SDS011;7954;51.914;8.420;2022-12-07T01:52:03;10.30;;;9.40;;
15708;SDS011;7954;51.914;8.420;2022-12-07T01:54:37;11.03;;;10.13;;
15708;SDS011;7954;51.914;8.420;2022-12-07T01:57:05;10.70;;;9.60;;
15708;SDS011;7954;51.914;8.420;2022-12-07T01:59:35;10.33;;;9.53;;
15708;SDS011;7954;51.914;8.420;2022-12-07T02:02:04;10.57;;;9.70;;
15708;SDS011;7954;51.914;8.420;2022-12-07T02:04:41;9.93;;;9.03;;
15708;SDS011;7954;51.914;8.420;2022-12-07T02:07:08;10.70;;;9.80;;
15708;SDS011;7954;51.914;8.420;2022-12-07T02:09:37;10.50;;;9.47;;
15708;SDS011;7954;51.914;8.420;2022-12-07T02:12:05;10.20;;;9.40;;
15708;SDS011;7954;51.914;8.420;2022-12-07T02:14:33;9.63;;;8.63;;
15708;SDS011;7954;51.914;8.420;2022-12-07T02:17:04;9.10;;;8.17;;
15708;SDS011;7954;51.914;8.420;2022-12-07T02:22:51;7.70;;;7.10;;
15708;SDS011;7954;51.914;8.420;2022-12-07T02:25:35;8.33;;;7.53;;
15708;SDS011;7954;51.914;8.420;2022-12-07T02:28:17;8.03;;;7.30;;
15708;SDS011;7954;51.914;8.420;2022-12-07T02:30:52;8.40;;;7.70;;
15708;SDS011;7954;51.914;8.420;2022-12-07T02:33:24;11.03;;;9.90;;
15708;SDS011;7954;51.914;8.420;2022-12-07T02:35:57;9.73;;;8.87;;
15708;SDS011;7954;51.914;8.420;2022-12-07T02:38:31;8.73;;;7.93;;
15708;SDS011;7954;51.914;8.420;2022-12-07T02:41:05;10.20;;;9.20;;
15708;SDS011;7954;51.914;8.420;2022-12-07T02:43:38;9.40;;;8.60;;
15708;SDS011;7954;51.914;8.420;2022-12-07T02:46:12;6.80;;;6.27;;
15708;SDS011;7954;51.914;8.420;2022-12-07T02:48:45;8.23;;;7.43;;
15708;SDS011;7954;51.914;8.420;2022-12-07T02:51:14;8.50;;;6.77;;
15708;SDS011;7954;51.914;8.420;2022-12-07T02:53:44;7.13;;;6.43;;
15708;SDS011;7954;51.914;8.420;2022-12-07T02:56:16;7.70;;;7.00;;
15708;SDS011;7954;51.914;8.420;2022-12-07T02:58:54;11.40;;;10.40;;
15708;SDS011;7954;51.914;8.420;2022-12-07T03:01:34;8.93;;;8.03;;
15708;SDS011;7954;51.914;8.420;2022-12-07T03:04:18;6.83;;;6.07;;
15708;SDS011;7954;51.914;8.420;2022-12-07T03:06:56;7.53;;;6.93;;
15708;SDS011;7954;51.914;8.420;2022-12-07T03:09:29;7.13;;;5.80;;
15708;SDS011;7954;51.914;8.420;2022-12-07T03:12:06;6.80;;;6.10;;
15708;SDS011;7954;51.914;8.420;2022-12-07T03:14:41;6.53;;;5.93;;
15708;SDS011;7954;51.914;8.420;2022-12-07T03:17:16;7.50;;;6.87;;
15708;SDS011;7954;51.914;8.420;2022-12-07T03:19:48;8.97;;;6.40;;
15708;SDS011;7954;51.914;8.420;2022-12-07T03:22:19;7.23;;;6.53;;
15708;SDS011;7954;51.914;8.420;2022-12-07T03:24:51;10.37;;;9.47;;
15708;SDS011;7954;51.914;8.420;2022-12-07T03:27:21;10.57;;;8.63;;
15708;SDS011;7954;51.914;8.420;2022-12-07T03:29:53;6.37;;;5.77;;
15708;SDS011;7954;51.914;8.420;2022-12-07T03:32:29;6.00;;;4.77;;
15708;SDS011;7954;51.914;8.420;2022-12-07T03:35:02;11.33;;;10.33;;
15708;SDS011;7954;51.914;8.420;2022-12-07T03:37:34;6.50;;;5.40;;
15708;SDS011;7954;51.914;8.420;2022-12-07T03:40:07;6.60;;;5.97;;
15708;SDS011;7954;51.914;8.420;2022-12-07T03:42:43;9.27;;;5.83;;
15708;SDS011;7954;51.914;8.420;2022-12-07T03:45:11;6.07;;;5.47;;
15708;SDS011;7954;51.914;8.420;2022-12-07T03:47:44;12.90;;;9.50;;
15708;SDS011;7954;51.914;8.420;2022-12-07T03:50:18;9.67;;;8.63;;
15708;SDS011;7954;51.914;8.420;2022-12-07T03:52:53;6.10;;;5.50;;
15708;SDS011;7954;51.914;8.420;2022-12-07T03:55:25;10.43;;;7.07;;
15708;SDS011;7954;51.914;8.420;2022-12-07T03:57:58;9.93;;;6.33;;
15708;SDS011;7954;51.914;8.420;2022-12-07T04:00:30;8.77;;;7.43;;
15708;SDS011;7954;51.914;8.420;2022-12-07T04:03:00;10.70;;;9.80;;
15708;SDS011;7954;51.914;8.420;2022-12-07T04:05:28;9.50;;;8.70;;
15708;SDS011;7954;51.914;8.420;2022-12-07T04:07:56;9.63;;;7.17;;
15708;SDS011;7954;51.914;8.420;2022-12-07T04:10:26;9.73;;;8.83;;
15708;SDS011;7954;51.914;8.420;2022-12-07T04:12:54;8.77;;;7.87;;
15708;SDS011;7954;51.914;8.420;2022-12-07T04:15:22;7.93;;;7.23;;
15708;SDS011;7954;51.914;8.420;2022-12-07T04:17:50;8.67;;;5.70;;
15708;SDS011;7954;51.914;8.420;2022-12-07T04:20:20;9.47;;;8.50;;
15708;SDS011;7954;51.914;8.420;2022-12-07T04:22:48;9.87;;;8.97;;
15708;SDS011;7954;51.914;8.420;2022-12-07T04:25:16;8.90;;;7.97;;
15708;SDS011;7954;51.914;8.420;2022-12-07T04:27:44;8.90;;;8.10;;
15708;SDS011;7954;51.914;8.420;2022-12-07T04:30:12;7.67;;;6.93;;
15708;SDS011;7954;51.914;8.420;2022-12-07T04:32:40;7.20;;;6.20;;
15708;SDS011;7954;51.914;8.420;2022-12-07T04:35:09;6.70;;;6.10;;
15708;SDS011;7954;51.914;8.420;2022-12-07T04:37:38;10.33;;;9.33;;
15708;SDS011;7954;51.914;8.420;2022-12-07T04:40:07;11.40;;;10.30;;
15708;SDS011;7954;51.914;8.420;2022-12-07T04:42:37;12.17;;;11.07;;
15708;SDS011;7954;51.914;8.420;2022-12-07T04:45:06;11.40;;;9.50;;
15708;SDS011;7954;51.914;8.420;2022-12-07T04:47:35;7.80;;;6.90;;
15708;SDS011;7954;51.914;8.420;2022-12-07T04:50:03;6.93;;;6.20;;
15708;SDS011;7954;51.914;8.420;2022-12-07T04:52:32;9.57;;;7.93;;
15708;SDS011;7954;51.914;8.420;2022-12-07T04:55:01;8.53;;;7.83;;
15708;SDS011;7954;51.914;8.420;2022-12-07T04:57:30;7.50;;;6.80;;
15708;SDS011;7954;51.914;8.420;2022-12-07T04:59:58;8.90;;;7.43;;
15708;SDS011;7954;51.914;8.420;2022-12-07T05:02:26;10.27;;;9.07;;
15708;SDS011;7954;51.914;8.420;2022-12-07T05:04:54;8.33;;;7.30;;
15708;SDS011;7954;51.914;8.420;2022-12-07T05:07:22;12.57;;;11.17;;
15708;SDS011;7954;51.914;8.420;2022-12-07T05:09:51;8.93;;;8.13;;
15708;SDS011;7954;51.914;8.420;2022-12-07T05:12:20;7.10;;;6.43;;
15708;SDS011;7954;51.914;8.420;2022-12-07T05:14:48;8.07;;;7.27;;
15708;SDS011;7954;51.914;8.420;2022-12-07T05:17:16;9.60;;;8.43;;
15708;SDS011;7954;51.914;8.420;2022-12-07T05:19:45;9.10;;;8.30;;
15708;SDS011;7954;51.914;8.420;2022-12-07T05:22:13;7.73;;;7.03;;
15708;SDS011;7954;51.914;8.420;2022-12-07T05:24:41;11.67;;;10.47;;
15708;SDS011;7954;51.914;8.420;2022-12-07T05:27:09;7.73;;;7.03;;
15708;SDS011;7954;51.914;8.420;2022-12-07T05:29:38;8.83;;;7.97;;
15708;SDS011;7954;51.914;8.420;2022-12-07T05:32:06;8.33;;;7.50;;
15708;SDS011;7954;51.914;8.420;2022-12-07T05:34:34;7.10;;;6.40;;
15708;SDS011;7954;51.914;8.420;2022-12-07T05:37:02;6.00;;;5.40;;
15708;SDS011;7954;51.914;8.420;2022-12-07T05:39:31;7.90;;;6.93;;
15708;SDS011;7954;51.914;8.420;2022-12-07T05:41:58;6.93;;;6.10;;
15708;SDS011;7954;51.914;8.420;2022-12-07T05:44:45;8.90;;;8.00;;
15708;SDS011;7954;51.914;8.420;2022-12-07T05:47:13;7.80;;;7.00;;
15708;SDS011;7954;51.914;8.420;2022-12-07T05:49:42;6.17;;;5.57;;
15708;SDS011;7954;51.914;8.420;2022-12-07T05:52:11;8.07;;;7.27;;
15708;SDS011;7954;51.914;8.420;2022-12-07T05:54:39;8.17;;;7.03;;
15708;SDS011;7954;51.914;8.420;2022-12-07T05:57:07;8.90;;;7.13;;
15708;SDS011;7954;51.914;8.420;2022-12-07T05:59:35;8.70;;;5.90;;
15708;SDS011;7954;51.914;8.420;2022-12-07T06:02:04;7.33;;;5.60;;
15708;SDS011;7954;51.914;8.420;2022-12-07T06:04:35;6.87;;;6.27;;
15708;SDS011;7954;51.914;8.420;2022-12-07T06:07:05;5.60;;;4.90;;
15708;SDS011;7954;51.914;8.420;2022-12-07T06:09:34;5.93;;;5.40;;
15708;SDS011;7954;51.914;8.420;2022-12-07T06:12:03;6.50;;;4.93;;
15708;SDS011;7954;51.914;8.420;2022-12-07T06:14:52;7.07;;;5.77;;
15708;SDS011;7954;51.914;8.420;2022-12-07T06:17:21;7.40;;;6.70;;
15708;SDS011;7954;51.914;8.420;2022-12-07T06:19:50;5.80;;;5.30;;
15708;SDS011;7954;51.914;8.420;2022-12-07T06:22:18;7.73;;;7.03;;
15708;SDS011;7954;51.914;8.420;2022-12-07T06:24:46;8.00;;;7.20;;
15708;SDS011;7954;51.914;8.420;2022-12-07T06:27:14;7.43;;;6.23;;
15708;SDS011;7954;51.914;8.420;2022-12-07T06:29:43;16.57;;;14.87;;
15708;SDS011;7954;51.914;8.420;2022-12-07T06:32:11;6.83;;;5.43;;
15708;SDS011;7954;51.914;8.420;2022-12-07T06:34:41;7.67;;;6.87;;
15708;SDS011;7954;51.914;8.420;2022-12-07T06:37:10;10.93;;;8.63;;
15708;SDS011;7954;51.914;8.420;2022-12-07T06:39:38;8.40;;;6.83;;
15708;SDS011;7954;51.914;8.420;2022-12-07T06:42:06;7.50;;;6.40;;
15708;SDS011;7954;51.914;8.420;2022-12-07T06:44:34;7.67;;;5.50;;
15708;SDS011;7954;51.914;8.420;2022-12-07T06:47:02;6.93;;;5.27;;
15708;SDS011;7954;51.914;8.420;2022-12-07T06:49:52;8.43;;;5.40;;
15708;SDS011;7954;51.914;8.420;2022-12-07T06:52:20;6.10;;;5.17;;
15708;SDS011;7954;51.914;8.420;2022-12-07T06:54:48;7.03;;;5.40;;
15708;SDS011;7954;51.914;8.420;2022-12-07T06:57:16;6.17;;;5.50;;
15708;SDS011;7954;51.914;8.420;2022-12-07T06:59:44;6.73;;;6.03;;
15708;SDS011;7954;51.914;8.420;2022-12-07T07:02:12;6.77;;;5.20;;
15708;SDS011;7954;51.914;8.420;2022-12-07T07:04:40;6.40;;;5.03;;
15708;SDS011;7954;51.914;8.420;2022-12-07T07:07:11;7.67;;;5.33;;
15708;SDS011;7954;51.914;8.420;2022-12-07T07:09:40;6.60;;;5.17;;
15708;SDS011;7954;51.914;8.420;2022-12-07T07:12:08;8.40;;;5.53;;
15708;SDS011;7954;51.914;8.420;2022-12-07T07:14:37;9.00;;;5.97;;
15708;SDS011;7954;51.914;8.420;2022-12-07T07:17:05;8.17;;;5.77;;
15708;SDS011;7954;51.914;8.420;2022-12-07T07:19:33;5.33;;;4.83;;
15708;SDS011;7954;51.914;8.420;2022-12-07T07:22:02;5.63;;;4.67;;
15708;SDS011;7954;51.914;8.420;2022-12-07T07:24:32;5.47;;;4.90;;
15708;SDS011;7954;51.914;8.420;2022-12-07T07:27:00;7.40;;;5.23;;
15708;SDS011;7954;51.914;8.420;2022-12-07T07:29:28;6.40;;;5.07;;
15708;SDS011;7954;51.914;8.420;2022-12-07T07:31:56;6.83;;;4.53;;
15708;SDS011;7954;51.914;8.420;2022-12-07T07:34:31;7.07;;;4.40;;
15708;SDS011;7954;51.914;8.420;2022-12-07T07:37:00;5.27;;;4.53;;
15708;SDS011;7954;51.914;8.420;2022-12-07T07:39:29;8.33;;;4.80;;
15708;SDS011;7954;51.914;8.420;2022-12-07T07:41:59;5.17;;;4.43;;
15708;SDS011;7954;51.914;8.420;2022-12-07T07:44:27;5.60;;;4.87;;
15708;SDS011;7954;51.914;8.420;2022-12-07T07:47:00;4.63;;;4.20;;
15708;SDS011;7954;51.914;8.420;2022-12-07T07:49:28;6.50;;;5.00;;
15708;SDS011;7954;51.914;8.420;2022-12-07T07:51:56;6.03;;;4.87;;
15708;SDS011;7954;51.914;8.420;2022-12-07T07:54:25;7.07;;;5.83;;
15708;SDS011;7954;51.914;8.420;2022-12-07T07:56:54;9.47;;;5.70;;
15708;SDS011;7954;51.914;8.420;2022-12-07T07:59:23;10.20;;;6.30;;
15708;SDS011;7954;51.914;8.420;2022-12-07T08:01:51;11.43;;;7.63;;
15708;SDS011;7954;51.914;8.420;2022-12-07T08:04:19;10.77;;;6.50;;
15708;SDS011;7954;51.914;8.420;2022-12-07T08:06:48;11.43;;;5.80;;
15708;SDS011;7954;51.914;8.420;2022-12-07T08:09:16;7.30;;;4.57;;
15708;SDS011;7954;51.914;8.420;2022-12-07T08:11:44;10.00;;;6.83;;
15708;SDS011;7954;51.914;8.420;2022-12-07T08:14:14;9.17;;;5.80;;
15708;SDS011;7954;51.914;8.420;2022-12-07T08:16:42;6.50;;;5.80;;
15708;SDS011;7954;51.914;8.420;2022-12-07T08:19:10;6.90;;;4.87;;
15708;SDS011;7954;51.914;8.420;2022-12-07T08:21:39;5.50;;;4.10;;
15708;SDS011;7954;51.914;8.420;2022-12-07T08:24:07;7.13;;;4.60;;
15708;SDS011;7954;51.914;8.420;2022-12-07T08:26:36;6.60;;;5.00;;
15708;SDS011;7954;51.914;8.420;2022-12-07T08:29:04;6.30;;;4.53;;
15708;SDS011;7954;51.914;8.420;2022-12-07T08:31:34;6.60;;;3.90;;
15708;SDS011;7954;51.914;8.420;2022-12-07T08:34:02;5.77;;;4.30;;
15708;SDS011;7954;51.914;8.420;2022-12-07T08:36:30;5.93;;;4.20;;
15708;SDS011;7954;51.914;8.420;2022-12-07T08:38:58;4.83;;;3.80;;
15708;SDS011;7954;51.914;8.420;2022-12-07T08:41:46;4.50;;;4.03;;
15708;SDS011;7954;51.914;8.420;2022-12-07T08:44:14;6.23;;;3.97;;
15708;SDS011;7954;51.914;8.420;2022-12-07T08:46:44;4.97;;;3.77;;
15708;SDS011;7954;51.914;8.420;2022-12-07T08:49:15;6.87;;;4.70;;
15708;SDS011;7954;51.914;8.420;2022-12-07T08:51:46;5.53;;;3.83;;
15708;SDS011;7954;51.914;8.420;2022-12-07T08:54:15;6.70;;;3.80;;
15708;SDS011;7954;51.914;8.420;2022-12-07T08:56:44;6.10;;;3.70;;
15708;SDS011;7954;51.914;8.420;2022-12-07T08:59:20;4.93;;;3.63;;
15708;SDS011;7954;51.914;8.420;2022-12-07T09:01:50;5.47;;;3.80;;
15708;SDS011;7954;51.914;8.420;2022-12-07T09:04:19;4.33;;;3.57;;
15708;SDS011;7954;51.914;8.420;2022-12-07T09:06:47;5.67;;;3.63;;
15708;SDS011;7954;51.914;8.420;2022-12-07T09:09:16;5.13;;;3.47;;
15708;SDS011;7954;51.914;8.420;2022-12-07T09:11:44;6.17;;;3.60;;
15708;SDS011;7954;51.914;8.420;2022-12-07T09:14:12;5.57;;;3.73;;
15708;SDS011;7954;51.914;8.420;2022-12-07T09:16:40;6.93;;;3.90;;
15708;SDS011;7954;51.914;8.420;2022-12-07T09:19:11;4.17;;;3.23;;
15708;SDS011;7954;51.914;8.420;2022-12-07T09:21:39;5.13;;;3.00;;
15708;SDS011;7954;51.914;8.420;2022-12-07T09:24:07;4.80;;;3.13;;
15708;SDS011;7954;51.914;8.420;2022-12-07T09:26:36;4.50;;;3.30;;
15708;SDS011;7954;51.914;8.420;2022-12-07T09:29:05;5.27;;;4.37;;
15708;SDS011;7954;51.914;8.420;2022-12-07T09:31:35;4.93;;;3.97;;
15708;SDS011;7954;51.914;8.420;2022-12-07T09:34:06;7.13;;;5.30;;
15708;SDS011;7954;51.914;8.420;2022-12-07T09:36:36;5.37;;;4.33;;
15708;SDS011;7954;51.914;8.420;2022-12-07T09:39:04;5.97;;;4.37;;
15708;SDS011;7954;51.914;8.420;2022-12-07T09:41:32;6.67;;;5.90;;
15708;SDS011;7954;51.914;8.420;2022-12-07T09:44:03;5.60;;;5.00;;
15708;SDS011;7954;51.914;8.420;2022-12-07T09:46:34;5.33;;;3.70;;
15708;SDS011;7954;51.914;8.420;2022-12-07T09:49:04;5.43;;;3.20;;
15708;SDS011;7954;51.914;8.420;2022-12-07T09:51:32;5.30;;;3.80;;
15708;SDS011;7954;51.914;8.420;2022-12-07T09:54:02;7.07;;;4.47;;
15708;SDS011;7954;51.914;8.420;2022-12-07T09:56:31;7.03;;;6.33;;
15708;SDS011;7954;51.914;8.420;2022-12-07T09:59:00;8.00;;;5.03;;
15708;SDS011;7954;51.914;8.420;2022-12-07T10:01:30;5.73;;;3.93;;
15708;SDS011;7954;51.914;8.420;2022-12-07T10:04:01;5.60;;;3.30;;
15708;SDS011;7954;51.914;8.420;2022-12-07T10:06:37;9.33;;;5.10;;
15708;SDS011;7954;51.914;8.420;2022-12-07T10:09:10;5.27;;;4.33;;
15708;SDS011;7954;51.914;8.420;2022-12-07T10:11:58;7.37;;;4.47;;
15708;SDS011;7954;51.914;8.420;2022-12-07T10:14:27;5.23;;;3.73;;
15708;SDS011;7954;51.914;8.420;2022-12-07T10:17:33;5.13;;;3.67;;
15708;SDS011;7954;51.914;8.420;2022-12-07T10:20:14;6.10;;;4.40;;
15708;SDS011;7954;51.914;8.420;2022-12-07T10:22:53;5.20;;;4.27;;
15708;SDS011;7954;51.914;8.420;2022-12-07T10:25:28;4.77;;;3.73;;
15708;SDS011;7954;51.914;8.420;2022-12-07T10:28:08;5.00;;;3.17;;
15708;SDS011;7954;51.914;8.420;2022-12-07T10:30:47;3.77;;;2.80;;
15708;SDS011;7954;51.914;8.420;2022-12-07T10:33:30;5.53;;;2.70;;
15708;SDS011;7954;51.914;8.420;2022-12-07T10:36:17;5.20;;;3.50;;
15708;SDS011;7954;51.914;8.420;2022-12-07T10:38:48;7.63;;;6.87;;
15708;SDS011;7954;51.914;8.420;2022-12-07T10:41:19;5.60;;;3.03;;
15708;SDS011;7954;51.914;8.420;2022-12-07T10:43:48;3.70;;;3.20;;
15708;SDS011;7954;51.914;8.420;2022-12-07T10:52:24;4.27;;;3.53;;
15708;SDS011;7954;51.914;8.420;2022-12-07T10:55:08;3.37;;;2.47;;
15708;SDS011;7954;51.914;8.420;2022-12-07T10:57:51;4.57;;;2.70;;
15708;SDS011;7954;51.914;8.420;2022-12-07T11:00:31;3.03;;;2.33;;
15708;SDS011;7954;51.914;8.420;2022-12-07T11:03:09;4.57;;;2.73;;
15708;SDS011;7954;51.914;8.420;2022-12-07T11:05:52;3.60;;;2.30;;
15708;SDS011;7954;51.914;8.420;2022-12-07T11:08:30;4.10;;;2.20;;
15708;SDS011;7954;51.914;8.420;2022-12-07T11:11:08;6.63;;;3.63;;
15708;SDS011;7954;51.914;8.420;2022-12-07T11:13:42;6.17;;;3.90;;
15708;SDS011;7954;51.914;8.420;2022-12-07T11:16:19;5.77;;;2.23;;
15708;SDS011;7954;51.914;8.420;2022-12-07T11:18:56;6.60;;;5.10;;
15708;SDS011;7954;51.914;8.420;2022-12-07T11:21:35;5.70;;;3.13;;
15708;SDS011;7954;51.914;8.420;2022-12-07T11:24:10;5.13;;;2.87;;
15708;SDS011;7954;51.914;8.420;2022-12-07T11:26:56;2.50;;;2.10;;
15708;SDS011;7954;51.914;8.420;2022-12-07T11:29:55;7.10;;;3.50;;
15708;SDS011;7954;51.914;8.420;2022-12-07T11:32:38;6.50;;;3.33;;
15708;SDS011;7954;51.914;8.420;2022-12-07T11:35:15;5.73;;;2.40;;
15708;SDS011;7954;51.914;8.420;2022-12-07T11:37:49;6.10;;;2.33;;
15708;SDS011;7954;51.914;8.420;2022-12-07T11:40:24;4.63;;;3.03;;
15708;SDS011;7954;51.914;8.420;2022-12-07T11:42:56;5.97;;;4.47;;
15708;SDS011;7954;51.914;8.420;2022-12-07T11:45:28;4.00;;;2.80;;
15708;SDS011;7954;51.914;8.420;2022-12-07T11:47:59;4.80;;;2.50;;
15708;SDS011;7954;51.914;8.420;2022-12-07T11:50:34;4.00;;;2.23;;
15708;SDS011;7954;51.914;8.420;2022-12-07T11:53:10;5.67;;;3.70;;
15708;SDS011;7954;51.914;8.420;2022-12-07T11:55:43;5.97;;;2.80;;
15708;SDS011;7954;51.914;8.420;2022-12-07T11:58:19;5.73;;;2.33;;
15708;SDS011;7954;51.914;8.420;2022-12-07T12:01:08;4.33;;;2.43;;
15708;SDS011;7954;51.914;8.420;2022-12-07T12:03:44;3.77;;;2.70;;
15708;SDS011;7954;51.914;8.420;2022-12-07T12:06:18;5.57;;;3.40;;
15708;SDS011;7954;51.914;8.420;2022-12-07T12:08:49;4.27;;;2.47;;
15708;SDS011;7954;51.914;8.420;2022-12-07T12:11:47;5.00;;;3.43;;
15708;SDS011;7954;51.914;8.420;2022-12-07T12:14:54;4.07;;;2.67;;
15708;SDS011;7954;51.914;8.420;2022-12-07T12:17:45;3.37;;;1.97;;
15708;SDS011;7954;51.914;8.420;2022-12-07T12:20:25;5.23;;;2.40;;
15708;SDS011;7954;51.914;8.420;2022-12-07T12:22:58;5.90;;;2.20;;
15708;SDS011;7954;51.914;8.420;2022-12-07T12:25:36;8.73;;;2.30;;
15708;SDS011;7954;51.914;8.420;2022-12-07T12:28:18;5.80;;;2.10;;
15708;SDS011;7954;51.914;8.420;2022-12-07T12:31:05;5.93;;;2.50;;
15708;SDS011;7954;51.914;8.420;2022-12-07T12:33:38;4.90;;;2.30;;
15708;SDS011;7954;51.914;8.420;2022-12-07T12:36:17;5.27;;;2.33;;
15708;SDS011;7954;51.914;8.420;2022-12-07T12:38:48;4.83;;;2.10;;
15708;SDS011;7954;51.914;8.420;2022-12-07T12:47:40;4.87;;;2.47;;
15708;SDS011;7954;51.914;8.420;2022-12-07T12:53:12;4.63;;;2.40;;
15708;SDS011;7954;51.914;8.420;2022-12-07T12:55:52;3.73;;;2.00;;
15708;SDS011;7954;51.914;8.420;2022-12-07T12:58:37;2.93;;;1.93;;
15708;SDS011;7954;51.914;8.420;2022-12-07T13:04:30;3.73;;;2.23;;
15708;SDS011;7954;51.914;8.420;2022-12-07T13:07:13;2.67;;;2.07;;
15708;SDS011;7954;51.914;8.420;2022-12-07T13:10:02;4.77;;;2.10;;
15708;SDS011;7954;51.914;8.420;2022-12-07T13:12:31;4.27;;;2.07;;
15708;SDS011;7954;51.914;8.420;2022-12-07T13:14:59;4.80;;;1.80;;
15708;SDS011;7954;51.914;8.420;2022-12-07T13:20:40;3.93;;;2.13;;
15708;SDS011;7954;51.914;8.420;2022-12-07T13:23:12;4.13;;;1.80;;
15708;SDS011;7954;51.914;8.420;2022-12-07T13:28:44;3.60;;;1.90;;
15708;SDS011;7954;51.914;8.420;2022-12-07T13:31:16;3.77;;;2.30;;
15708;SDS011;7954;51.914;8.420;2022-12-07T13:33:50;2.80;;;1.80;;
15708;SDS011;7954;51.914;8.420;2022-12-07T13:36:20;5.13;;;2.10;;
15708;SDS011;7954;51.914;8.420;2022-12-07T13:38:52;3.30;;;1.90;;
15708;SDS011;7954;51.914;8.420;2022-12-07T13:41:22;4.03;;;2.30;;
15708;SDS011;7954;51.914;8.420;2022-12-07T13:43:54;6.17;;;2.30;;
15708;SDS011;7954;51.914;8.420;2022-12-07T13:46:35;2.90;;;1.73;;
15708;SDS011;7954;51.914;8.420;2022-12-07T13:49:19;3.63;;;2.20;;
15708;SDS011;7954;51.914;8.420;2022-12-07T13:51:49;3.77;;;1.73;;
15708;SDS011;7954;51.914;8.420;2022-12-07T13:54:20;3.47;;;2.00;;
15708;SDS011;7954;51.914;8.420;2022-12-07T13:56:50;6.00;;;2.50;;
15708;SDS011;7954;51.914;8.420;2022-12-07T13:59:19;4.23;;;2.00;;
15708;SDS011;7954;51.914;8.420;2022-12-07T14:01:50;5.57;;;2.73;;
15708;SDS011;7954;51.914;8.420;2022-12-07T14:04:30;4.50;;;2.30;;
15708;SDS011;7954;51.914;8.420;2022-12-07T14:07:00;4.60;;;2.83;;
15708;SDS011;7954;51.914;8.420;2022-12-07T14:09:54;4.27;;;2.20;;
15708;SDS011;7954;51.914;8.420;2022-12-07T14:12:24;6.10;;;2.60;;
15708;SDS011;7954;51.914;8.420;2022-12-07T14:14:53;5.27;;;2.60;;
15708;SDS011;7954;51.914;8.420;2022-12-07T14:17:23;3.23;;;2.10;;
15708;SDS011;7954;51.914;8.420;2022-12-07T14:19:52;5.93;;;2.20;;
15708;SDS011;7954;51.914;8.420;2022-12-07T14:22:24;3.27;;;2.53;;
15708;SDS011;7954;51.914;8.420;2022-12-07T14:25:13;4.83;;;2.20;;
15708;SDS011;7954;51.914;8.420;2022-12-07T14:27:48;4.33;;;1.90;;
15708;SDS011;7954;51.914;8.420;2022-12-07T14:30:38;4.73;;;2.07;;
15708;SDS011;7954;51.914;8.420;2022-12-07T14:33:08;5.27;;;1.77;;
15708;SDS011;7954;51.914;8.420;2022-12-07T14:35:37;5.53;;;2.33;;
15708;SDS011;7954;51.914;8.420;2022-12-07T14:38:08;4.57;;;1.93;;
15708;SDS011;7954;51.914;8.420;2022-12-07T14:40:38;3.97;;;2.00;;
15708;SDS011;7954;51.914;8.420;2022-12-07T14:43:09;3.60;;;1.70;;
15708;SDS011;7954;51.914;8.420;2022-12-07T14:45:42;2.50;;;1.57;;
15708;SDS011;7954;51.914;8.420;2022-12-07T14:48:12;6.17;;;2.57;;
15708;SDS011;7954;51.914;8.420;2022-12-07T14:51:01;3.00;;;1.70;;
15708;SDS011;7954;51.914;8.420;2022-12-07T14:53:52;3.27;;;1.80;;
15708;SDS011;7954;51.914;8.420;2022-12-07T14:56:24;3.37;;;1.90;;
15708;SDS011;7954;51.914;8.420;2022-12-07T14:58:54;4.17;;;1.90;;
15708;SDS011;7954;51.914;8.420;2022-12-07T15:01:22;4.43;;;1.87;;
15708;SDS011;7954;51.914;8.420;2022-12-07T15:03:49;5.03;;;2.00;;
15708;SDS011;7954;51.914;8.420;2022-12-07T15:06:18;4.27;;;1.97;;
15708;SDS011;7954;51.914;8.420;2022-12-07T15:08:46;8.63;;;2.10;;
15708;SDS011;7954;51.914;8.420;2022-12-07T15:11:15;4.83;;;2.47;;
15708;SDS011;7954;51.914;8.420;2022-12-07T15:13:45;5.40;;;2.40;;
15708;SDS011;7954;51.914;8.420;2022-12-07T15:16:31;4.67;;;2.47;;
15708;SDS011;7954;51.914;8.420;2022-12-07T15:19:20;5.27;;;3.00;;
15708;SDS011;7954;51.914;8.420;2022-12-07T15:21:54;6.67;;;2.50;;
15708;SDS011;7954;51.914;8.420;2022-12-07T15:24:23;5.47;;;2.40;;
15708;SDS011;7954;51.914;8.420;2022-12-07T15:26:52;5.23;;;2.50;;
15708;SDS011;7954;51.914;8.420;2022-12-07T15:29:21;5.07;;;2.17;;
15708;SDS011;7954;51.914;8.420;2022-12-07T15:31:50;4.60;;;2.10;;
15708;SDS011;7954;51.914;8.420;2022-12-07T15:34:22;5.90;;;1.93;;
15708;SDS011;7954;51.914;8.420;2022-12-07T15:36:52;3.50;;;2.07;;
15708;SDS011;7954;51.914;8.420;2022-12-07T15:39:21;5.43;;;2.43;;
15708;SDS011;7954;51.914;8.420;2022-12-07T15:41:50;6.87;;;2.70;;
15708;SDS011;7954;51.914;8.420;2022-12-07T15:44:18;6.80;;;3.03;;
15708;SDS011;7954;51.914;8.420;2022-12-07T15:47:05;6.83;;;2.70;;
15708;SDS011;7954;51.914;8.420;2022-12-07T15:49:33;5.27;;;2.77;;
15708;SDS011;7954;51.914;8.420;2022-12-07T15:52:01;7.53;;;2.87;;
15708;SDS011;7954;51.914;8.420;2022-12-07T15:54:29;5.43;;;2.80;;
15708;SDS011;7954;51.914;8.420;2022-12-07T15:56:58;6.33;;;3.13;;
15708;SDS011;7954;51.914;8.420;2022-12-07T15:59:27;7.60;;;3.30;;